Nearby METAR Reports

 

KAGC - Pittsburgh/Alleg, Pennsylvania, USA
Distance from station: N 14mi, 23km
Updated: Fri, May-25-2018 9:53pm EDT
Clear
Clear
 Wind from WSW
Wind: WSW 5 mph , 7 km/h
Temperature: 77°F , 25°C
Dew Point: 61°F , 16°C
Humidity: 57%
Barometer: 29.89 inHg , 1012.2 hPa
Clouds: Clear
Visibility: 10 miles , 16 km
2018/05/26 01:53 KAGC 260153Z AUTO 24004KT 10SM CLR 25/16 A2989 RMK AO2 SLP118 T02500156
KAFJ - Washington, Pennsylvania, USA
Distance from station: W 17mi, 28km
Updated: Fri, May-25-2018 9:56pm EDT
Clear
Clear
 Wind from calm
Wind: Calm
Temperature: 72°F , 22°C
Dew Point: 64°F , 18°C
Humidity: 78%
Barometer: 29.93 inHg , 1013.5 hPa
Clouds: Clear
Visibility: 10 miles , 16 km
2018/05/26 01:56 KAFJ 260156Z AUTO 00000KT 10SM CLR 22/18 A2993 RMK AO2 SLP126 T02170183
 
KLBE - Latrobe, Pennsylvania, USA
Distance from station: ENE 30mi, 48km
Updated: Fri, May-25-2018 9:45pm EDT
Clear
Clear
 Wind from SSW
Wind: SSW 3 mph , 6 km/h
Temperature: 73°F , 23°C
Dew Point: 64°F , 18°C
Humidity: 74%
Barometer: 29.90 inHg , 1012.5 hPa
Clouds: Clear
Visibility: 10 miles , 16 km
2018/05/26 01:45 KLBE 260145Z 20003KT 10SM SKC 23/18 A2990
KPIT - Pittsburgh, Pennsylvania, USA
Distance from station: NW 30mi, 48km
Updated: Fri, May-25-2018 9:51pm EDT
Few Clouds
Few Clouds
 Wind from calm
Wind: Calm
Temperature: 73°F , 23°C
Dew Point: 61°F , 16°C
Humidity: 65%
Barometer: 29.89 inHg , 1012.2 hPa
Clouds: Few Clouds
Visibility: 10 miles , 16 km
Cloud details: Few Clouds 5500 ft
Few Clouds 25000 ft
2018/05/26 01:51 KPIT 260151Z 00000KT 10SM FEW055 FEW250 23/16 A2989 RMK AO2 SLP120 T02280156
 
KMGW - Morgantown, West Virginia, USA
Distance from station: S 34mi, 55km
Updated: Fri, May-25-2018 9:53pm EDT
Clear
Clear
 Wind from S
Wind: S 3 mph , 6 km/h
Temperature: 73°F , 23°C
Dew Point: 64°F , 18°C
Humidity: 74%
Barometer: 29.92 inHg , 1013.2 hPa
Clouds: Clear
Visibility: 10 miles , 16 km
2018/05/26 01:53 KMGW 260153Z 18003KT 10SM CLR 23/18 A2992 RMK AO2 SLP122 T02280178
KHLG - Wheeling, West Virginia, USA
Distance from station: W 37mi, 60km
Updated: Fri, May-25-2018 9:53pm EDT
Clear
Clear
 Wind from calm
Wind: Calm
Temperature: 75°F , 24°C
Dew Point: 63°F , 17°C
Humidity: 65%
Barometer: 29.90 inHg , 1012.5 hPa
Clouds: Clear
Visibility: 10 miles , 16 km
2018/05/26 01:53 KHLG 260153Z 00000KT 10SM CLR 24/17 A2990 RMK AO2 SLP117 T02390167
 
KBTP - Butler Co., Pennsylvania, USA
Distance from station: N 43mi, 69km
Updated: Fri, May-25-2018 9:56pm EDT
Clear
Clear
 Wind from calm
Wind: Calm
Temperature: 66°F , 19°C
Dew Point: 55°F , 13°C
Humidity: 68%
Barometer: 29.91 inHg , 1012.9 hPa
Clouds: Clear
Visibility: 10 miles , 16 km
2018/05/26 01:56 KBTP 260156Z AUTO 00000KT 10SM CLR 19/13 A2991 RMK AO2 SLP125 T01940133
KBVI - Beaver Falls Arp, Pennsylvania, USA
Distance from station: NNW 49mi, 79km
Updated: Fri, May-25-2018 8:47pm EDT
NOT Current
Clear
Clear
 Wind from calm
Wind: Calm
Temperature: 75°F , 24°C
Dew Point: 54°F , 12°C
Humidity: 47%
Barometer: 29.89 inHg , 1012.2 hPa
Clouds: Clear
Visibility: 10 miles , 16 km
2018/05/26 00:47 KBVI 260047Z 00000KT 10SM CLR 24/12 A2989 RMK LAST.
 
K2G4 - Garrett Co, Maryland, USA
Distance from station: SE 51mi, 82km
Updated: Fri, May-25-2018 10:05pm EDT
Clear
Clear
 Wind from WSW
Wind: WSW 3 mph , 6 km/h
Temperature: 68°F , 20°C
Dew Point: 55°F , 13°C
Humidity: 64%
Barometer: 30.01 inHg , 1016.3 hPa
Clouds: Clear
Visibility: 10 miles , 16 km
2018/05/26 02:05 K2G4 260205Z AUTO 24003KT 10SM CLR 20/13 A3001 RMK AO1
KIDI - Indiana/Stewart, Pennsylvania, USA
Distance from station: NE 56mi, 90km
Updated: Fri, May-25-2018 9:55pm EDT
Clear
Clear
 Wind from calm
Wind: Calm
Temperature: 70°F , 21°C
Dew Point: 63°F , 17°C
Humidity: 78%
Barometer: 29.94 inHg , 1013.9 hPa
Clouds: Clear
Visibility: 10 miles , 16 km
2018/05/26 01:55 KIDI 260155Z AUTO 00000KT 10SM CLR 21/17 A2994 RMK A01
 
KJST - Johnstown, Pennsylvania, USA
Distance from station: ENE 60mi, 96km
Updated: Fri, May-25-2018 9:54pm EDT
Clear
Clear
 Wind from WSW
Wind: WSW 3 mph , 6 km/h
Temperature: 73°F , 23°C
Dew Point: 61°F , 16°C
Humidity: 65%
Barometer: 29.95 inHg , 1014.2 hPa
Clouds: Clear
Visibility: 10 miles , 16 km
2018/05/26 01:54 KJST 260154Z AUTO 25003KT 10SM CLR 23/16 A2995 RMK AO2 SLP126 T02280156
KCBE - Cumberland Reg, Maryland, USA
Distance from station: ESE 72mi, 116km
Updated: Fri, May-25-2018 9:56pm EDT
Clear
Clear
 Wind from calm
Wind: Calm
Temperature: 75°F , 24°C
Dew Point: 66°F , 19°C
Humidity: 74%
Barometer: 29.93 inHg , 1013.5 hPa
Clouds: Clear
Visibility: 10 miles , 16 km
2018/05/26 01:56 KCBE 260156Z AUTO 00000KT 10SM CLR 24/19 A2993 RMK AO1
 
KILG - Wilmington, Delaware, USA
Distance from station: ESE 234mi, 377km
Updated: Fri, May-25-2018 9:51pm EDT
Clear
Clear
 Wind from SSW
Wind: SSW 9 mph , 15 km/h
Temperature: 75°F , 24°C
Dew Point: 64°F , 18°C
Humidity: 69%
Barometer: 29.90 inHg , 1012.5 hPa
Clouds: Clear
Visibility: 10 miles , 16 km
2018/05/26 01:51 KILG 260151Z 21008KT 10SM CLR 24/18 A2990 RMK AO2 SLP124 T02440183
KTUS - Tucson, Arizona, USA
Distance from station: WSW 1806mi, 3283km
Updated: Fri, May-25-2018 9:53pm EDT
Clear
Clear
 Wind from W
Wind: W 10 mph , 17 km/h
Temperature: 93°F , 34°C
Dew Point: 28°F , -2°C
Humidity: 10%
Barometer: 29.92 inHg , 1013.2 hPa
Clouds: Clear
Visibility: 10 miles , 16 km
2018/05/26 01:53 KTUS 260153Z 27009KT 10SM CLR 34/M02 A2992 RMK AO2 SLP083 T03441022